Time;durP1;ratioP1;P1;durP2;ratioP2;P2;SDS_P1;SDS_P2;PMS_P1;PMS_P2;Temp;Humidity;BMP_temperature;BMP_pressure;BME280_temperature;BME280_humidity;BME280_pressure;Samples;Min_cycle;Max_cycle;Signal;HPM_P1;HPM_P2
2022/07/30 00:02:17;;;;;;;14.63;7.68;;;16.50;99.90;;;;;;5076909;28;20131;-76
2022/07/30 00:04:43;;;;;;;17.50;8.77;;;16.50;99.90;;;;;;5077071;28;20059;-76
2022/07/30 00:07:09;;;;;;;12.27;6.90;;;16.40;99.90;;;;;;5076678;28;20052;-76
2022/07/30 00:09:35;;;;;;;14.23;6.97;;;16.40;99.90;;;;;;5076774;28;20098;-77
2022/07/30 00:12:01;;;;;;;13.40;8.05;;;16.30;99.90;;;;;;5076780;28;20048;-77
2022/07/30 00:14:26;;;;;;;13.82;8.00;;;16.30;99.90;;;;;;5092320;28;20043;-77
2022/07/30 00:16:53;;;;;;;14.25;7.53;;;16.30;99.90;;;;;;5092141;28;20475;-77
2022/07/30 00:19:19;;;;;;;15.35;7.22;;;16.30;99.90;;;;;;5092151;28;20055;-76
2022/07/30 00:21:45;;;;;;;14.38;7.32;;;16.30;99.90;;;;;;5092157;28;20098;-77
2022/07/30 00:24:11;;;;;;;17.38;7.80;;;16.30;99.90;;;;;;5075148;28;20048;-77
2022/07/30 00:26:36;;;;;;;16.27;7.85;;;16.30;99.90;;;;;;5092251;28;20049;-77
2022/07/30 00:29:03;;;;;;;11.18;7.47;;;16.20;99.90;;;;;;5076325;28;20076;-77
2022/07/30 00:31:29;;;;;;;12.02;7.00;;;16.20;99.90;;;;;;5076476;28;20177;-77
2022/07/30 00:33:55;;;;;;;11.27;6.53;;;16.20;99.90;;;;;;5075963;28;20553;-77
2022/07/30 00:36:20;;;;;;;15.07;8.02;;;16.10;99.90;;;;;;5076246;28;20126;-76
2022/07/30 00:38:46;;;;;;;15.15;7.80;;;16.00;99.90;;;;;;5076162;28;20503;-77
2022/07/30 00:41:12;;;;;;;14.82;7.85;;;16.00;99.90;;;;;;5092073;28;20044;-77
2022/07/30 00:43:38;;;;;;;14.80;7.97;;;15.90;99.90;;;;;;5092021;28;20067;-77
2022/07/30 00:46:03;;;;;;;14.35;7.80;;;15.90;99.90;;;;;;5074837;28;20404;-77
2022/07/30 00:48:29;;;;;;;17.17;8.38;;;15.90;99.90;;;;;;5076065;28;20480;-77
2022/07/30 00:50:55;;;;;;;18.50;8.23;;;15.80;99.90;;;;;;5076103;28;20041;-77
2022/07/30 00:53:21;;;;;;;15.50;8.63;;;15.80;99.90;;;;;;5075826;28;20048;-77
2022/07/30 00:55:46;;;;;;;13.20;8.45;;;15.70;99.90;;;;;;5075927;28;20052;-77
2022/07/30 00:58:12;;;;;;;15.68;9.13;;;15.70;99.90;;;;;;5075906;28;20048;-77
2022/07/30 01:00:38;;;;;;;19.13;8.93;;;15.70;99.90;;;;;;5075842;28;20037;-77
2022/07/30 01:03:03;;;;;;;15.88;10.30;;;15.70;99.90;;;;;;5075740;28;20458;-77
2022/07/30 01:05:29;;;;;;;14.95;9.60;;;15.70;99.90;;;;;;5075828;28;20036;-76
2022/07/30 01:07:55;;;;;;;16.85;9.10;;;15.70;99.90;;;;;;5075775;28;20106;-76
2022/07/30 01:10:21;;;;;;;16.25;8.38;;;15.60;99.90;;;;;;5074454;28;20045;-76
2022/07/30 01:12:46;;;;;;;14.32;8.00;;;15.60;99.90;;;;;;5091493;28;20044;-77
2022/07/30 01:15:12;;;;;;;12.48;8.20;;;15.60;99.90;;;;;;5074395;28;20457;-77
2022/07/30 01:17:39;;;;;;;17.42;8.38;;;15.50;99.90;;;;;;5075576;28;20040;-77
2022/07/30 01:20:17;;;;;;;15.05;8.27;;;15.50;99.90;;;;;;5074126;28;20052;-76
2022/07/30 01:23:09;;;;;;;19.63;8.77;;;15.40;99.90;;;;;;5075470;28;20125;-77
2022/07/30 01:25:55;;;;;;;18.52;9.02;;;15.40;99.90;;;;;;5090762;28;20120;-77
2022/07/30 01:28:25;;;;;;;13.07;8.00;;;15.30;99.90;;;;;;5091084;28;20058;-77
2022/07/30 01:30:52;;;;;;;19.08;8.30;;;15.20;99.90;;;;;;5090887;28;20052;-77
2022/07/30 01:33:20;;;;;;;14.32;9.02;;;15.20;99.90;;;;;;5075240;28;20144;-76
2022/07/30 01:35:48;;;;;;;16.55;9.35;;;15.10;99.90;;;;;;5090828;28;20080;-77
2022/07/30 01:38:18;;;;;;;17.33;10.20;;;15.10;99.90;;;;;;5074991;28;20094;-77
2022/07/30 01:40:45;;;;;;;18.15;10.43;;;15.10;99.90;;;;;;5073662;28;20119;-77
2022/07/30 01:43:12;;;;;;;18.10;11.48;;;15.10;99.90;;;;;;5090825;28;20049;-76
2022/07/30 01:45:39;;;;;;;18.48;11.18;;;15.10;99.90;;;;;;5074002;28;20488;-77
2022/07/30 01:48:06;;;;;;;17.23;10.27;;;15.10;99.90;;;;;;5090772;28;20098;-77
2022/07/30 01:50:33;;;;;;;19.33;9.93;;;15.10;99.90;;;;;;5075423;28;20040;-77
2022/07/30 01:53:00;;;;;;;15.30;9.88;;;15.00;99.90;;;;;;5074844;28;20041;-77
2022/07/30 01:55:38;;;;;;;16.73;9.43;;;15.00;99.90;;;;;;5073484;28;20048;-77
2022/07/30 01:58:05;;;;;;;14.70;9.95;;;14.90;99.90;;;;;;5074751;28;20068;-77
2022/07/30 02:00:35;;;;;;;19.48;11.15;;;14.90;99.90;;;;;;5073633;28;20049;-77
2022/07/30 02:03:01;;;;;;;15.48;9.95;;;14.90;99.90;;;;;;5073444;28;20091;-76
2022/07/30 02:05:30;;;;;;;23.27;12.35;;;14.90;99.90;;;;;;5073207;28;20044;-77
2022/07/30 02:08:05;;;;;;;19.77;11.52;;;14.90;99.90;;;;;;5074348;28;20476;-77
2022/07/30 02:10:40;;;;;;;24.85;13.07;;;14.90;99.90;;;;;;5073209;28;20063;-77
2022/07/30 02:13:07;;;;;;;19.90;12.43;;;14.90;99.90;;;;;;5073244;28;20090;-76
2022/07/30 02:15:51;;;;;;;24.58;13.07;;;14.90;99.90;;;;;;5073165;28;20079;-76
2022/07/30 02:18:43;;;;;;;20.38;12.90;;;14.90;99.90;;;;;;5074401;28;20048;-76
2022/07/30 02:21:10;;;;;;;22.80;15.70;;;14.90;99.90;;;;;;5064184;28;20052;-76
2022/07/30 02:23:40;;;;;;;21.65;15.25;;;14.90;99.90;;;;;;5072866;28;20543;-77
2022/07/30 02:26:08;;;;;;;22.17;15.30;;;15.00;99.90;;;;;;5073926;28;20373;-76
2022/07/30 02:28:38;;;;;;;22.60;14.57;;;15.00;99.90;;;;;;5073042;28;20076;-77
2022/07/30 02:31:06;;;;;;;19.88;13.82;;;15.00;99.90;;;;;;5074131;28;20044;-77
2022/07/30 02:33:41;;;;;;;21.88;14.65;;;14.90;99.90;;;;;;5073048;28;20095;-77
2022/07/30 02:36:09;;;;;;;21.95;13.93;;;14.90;99.90;;;;;;5074018;28;20052;-77
2022/07/30 02:38:36;;;;;;;25.98;14.73;;;14.80;99.90;;;;;;5072599;28;20097;-77
2022/07/30 02:41:05;;;;;;;24.45;14.18;;;14.80;99.90;;;;;;5072882;28;20074;-77
2022/07/30 02:43:33;;;;;;;19.70;12.85;;;14.70;99.90;;;;;;5073987;28;20040;-77
2022/07/30 02:46:00;;;;;;;22.38;13.75;;;14.60;99.90;;;;;;5073827;28;20479;-77
2022/07/30 02:48:27;;;;;;;23.63;15.88;;;14.60;99.90;;;;;;5073941;28;20044;-77
2022/07/30 02:50:54;;;;;;;23.35;16.27;;;14.60;99.90;;;;;;5072436;28;20036;-77
2022/07/30 02:53:22;;;;;;;24.75;16.42;;;14.60;99.90;;;;;;5072489;28;20056;-77
2022/07/30 02:55:49;;;;;;;29.30;17.33;;;14.70;99.90;;;;;;5073656;28;20039;-77
2022/07/30 02:58:20;;;;;;;25.38;15.75;;;14.60;99.90;;;;;;5072285;28;20056;-77
2022/07/30 03:00:48;;;;;;;22.80;14.63;;;14.60;99.90;;;;;;5073757;28;20414;-77
2022/07/30 03:03:16;;;;;;;23.50;15.45;;;14.60;99.90;;;;;;5073675;28;20040;-77
2022/07/30 03:05:43;;;;;;;25.15;16.88;;;14.60;99.90;;;;;;5072270;28;20121;-77
2022/07/30 03:08:10;;;;;;;25.83;16.60;;;14.60;99.90;;;;;;5072353;28;20064;-77
2022/07/30 03:10:36;;;;;;;23.23;14.82;;;14.60;99.90;;;;;;5073514;28;20029;-77
2022/07/30 03:13:06;;;;;;;24.67;15.63;;;14.60;99.90;;;;;;5072342;28;20127;-77
2022/07/30 03:15:36;;;;;;;26.02;17.48;;;14.60;99.90;;;;;;5073557;28;20044;-77
2022/07/30 03:18:04;;;;;;;30.33;17.05;;;14.60;99.90;;;;;;5072169;28;20102;-77
2022/07/30 03:20:32;;;;;;;27.48;16.65;;;14.60;99.90;;;;;;5073574;28;20071;-77
2022/07/30 03:23:01;;;;;;;26.80;17.92;;;14.60;99.90;;;;;;5073285;28;20093;-77
2022/07/30 03:25:28;;;;;;;26.00;16.70;;;14.60;99.90;;;;;;5072860;28;20079;-77
2022/07/30 03:27:56;;;;;;;24.65;17.63;;;14.50;99.90;;;;;;5072125;28;20445;-77
2022/07/30 03:30:26;;;;;;;25.40;17.50;;;14.60;99.90;;;;;;5073447;28;20041;-77
2022/07/30 03:32:52;;;;;;;25.55;15.98;;;14.50;99.90;;;;;;5072019;28;20152;-77
2022/07/30 03:35:20;;;;;;;25.15;17.13;;;14.50;99.90;;;;;;5073309;28;20044;-77
2022/07/30 03:37:47;;;;;;;24.50;16.80;;;14.40;99.90;;;;;;5073148;28;20049;-77
2022/07/30 03:40:13;;;;;;;24.67;15.93;;;14.40;99.90;;;;;;5071605;28;20047;-77
2022/07/30 03:42:40;;;;;;;26.77;16.83;;;14.40;99.90;;;;;;5071532;28;20047;-77
2022/07/30 03:45:07;;;;;;;25.35;16.27;;;14.30;99.90;;;;;;5072417;28;20060;-77
2022/07/30 03:47:37;;;;;;;24.35;16.35;;;14.30;99.90;;;;;;5070151;28;20085;-76
2022/07/30 03:50:03;;;;;;;23.38;17.30;;;14.30;99.90;;;;;;5073289;28;20041;-77
2022/07/30 03:52:33;;;;;;;29.58;17.75;;;14.20;99.90;;;;;;5073209;28;20060;-77
2022/07/30 03:54:59;;;;;;;25.70;16.15;;;14.20;99.90;;;;;;5073158;28;20040;-77
2022/07/30 03:57:25;;;;;;;21.73;13.30;;;14.20;99.90;;;;;;5072828;28;20519;-77
2022/07/30 03:59:51;;;;;;;20.75;12.90;;;14.20;99.90;;;;;;5071940;28;20125;-77
2022/07/30 04:02:16;;;;;;;22.35;13.35;;;14.10;99.90;;;;;;5073193;28;20056;-77
2022/07/30 04:04:42;;;;;;;24.35;14.40;;;14.10;99.90;;;;;;5071610;28;20046;-77
2022/07/30 04:07:08;;;;;;;22.50;13.88;;;14.10;99.90;;;;;;5072993;28;20134;-77
2022/07/30 04:09:34;;;;;;;21.73;14.65;;;14.00;99.90;;;;;;5074463;28;20048;-77
2022/07/30 04:12:00;;;;;;;22.95;14.82;;;14.10;99.90;;;;;;5075228;28;20109;-77
2022/07/30 04:14:26;;;;;;;22.80;14.77;;;14.00;99.90;;;;;;5075214;28;20422;-77
2022/07/30 04:16:58;;;;;;;21.48;14.10;;;14.00;99.90;;;;;;5076327;28;20131;-77
2022/07/30 04:19:38;;;;;;;19.70;12.80;;;13.90;99.90;;;;;;5075377;28;20207;-77
2022/07/30 04:22:06;;;;;;;21.92;14.60;;;13.90;99.90;;;;;;5076599;28;20048;-77
2022/07/30 04:24:32;;;;;;;23.20;14.35;;;13.90;99.90;;;;;;5076111;28;20523;-77
2022/07/30 04:26:59;;;;;;;19.70;12.80;;;13.90;99.90;;;;;;5076376;28;20049;-77
2022/07/30 04:29:26;;;;;;;20.38;12.73;;;13.90;99.90;;;;;;5076362;28;20098;-77
2022/07/30 04:31:55;;;;;;;19.10;12.73;;;13.90;99.90;;;;;;5074927;28;20048;-77
2022/07/30 04:34:21;;;;;;;19.25;12.77;;;13.80;99.90;;;;;;5075044;28;20044;-77
2022/07/30 04:36:46;;;;;;;18.83;12.18;;;13.80;99.90;;;;;;5074790;28;20040;-77
2022/07/30 04:39:12;;;;;;;20.05;12.95;;;13.90;99.90;;;;;;5076343;28;20468;-77
2022/07/30 04:41:38;;;;;;;18.73;12.95;;;13.90;99.90;;;;;;5075296;28;20048;-77
2022/07/30 04:44:04;;;;;;;22.25;14.25;;;14.00;99.90;;;;;;5074628;28;20041;-77
2022/07/30 04:46:30;;;;;;;26.17;15.55;;;14.00;99.90;;;;;;5074570;28;20047;-77
2022/07/30 04:48:56;;;;;;;20.10;13.90;;;14.10;99.90;;;;;;5075846;28;20123;-77
2022/07/30 04:51:31;;;;;;;18.25;12.95;;;14.10;99.90;;;;;;5074875;28;20171;-77
2022/07/30 04:53:58;;;;;;;20.27;13.75;;;14.20;99.90;;;;;;5074790;28;20068;-77
2022/07/30 04:56:25;;;;;;;20.17;14.02;;;14.20;99.90;;;;;;5074696;28;20495;-77
2022/07/30 04:58:51;;;;;;;19.02;12.60;;;14.30;99.90;;;;;;5074718;28;20040;-77
2022/07/30 05:01:32;;;;;;;19.35;13.00;;;14.30;99.90;;;;;;5074668;28;20059;-77
2022/07/30 05:04:00;;;;;;;18.10;12.02;;;14.40;99.90;;;;;;5074651;28;20040;-77
2022/07/30 05:06:26;;;;;;;20.60;12.85;;;14.40;99.90;;;;;;5075720;28;20045;-77
2022/07/30 05:08:52;;;;;;;18.25;12.98;;;14.40;99.90;;;;;;5074452;28;20052;-77
2022/07/30 05:11:18;;;;;;;19.02;12.50;;;14.50;99.90;;;;;;5075296;28;20388;-77
2022/07/30 05:13:50;;;;;;;22.75;13.30;;;14.60;99.90;;;;;;5075460;28;20533;-77
2022/07/30 05:16:16;;;;;;;19.42;13.77;;;14.70;99.90;;;;;;5074342;28;20051;-77
2022/07/30 05:18:42;;;;;;;21.92;14.75;;;14.70;99.90;;;;;;5073909;28;20044;-77
2022/07/30 05:21:08;;;;;;;22.50;13.85;;;14.70;99.90;;;;;;5075405;28;20047;-77
2022/07/30 05:23:34;;;;;;;22.00;14.05;;;14.90;99.90;;;;;;5074919;28;20064;-77
2022/07/30 05:26:01;;;;;;;23.13;15.18;;;15.00;99.90;;;;;;5074029;28;20049;-77
2022/07/30 05:28:27;;;;;;;25.58;16.88;;;15.00;99.90;;;;;;5073716;28;20052;-77
2022/07/30 05:30:53;;;;;;;20.88;14.90;;;15.10;99.90;;;;;;5073713;28;20037;-77
2022/07/30 05:33:20;;;;;;;27.80;20.23;;;15.20;99.90;;;;;;5074019;28;20044;-77
2022/07/30 05:35:46;;;;;;;39.20;23.80;;;15.30;99.90;;;;;;5075282;28;20036;-77
2022/07/30 05:38:12;;;;;;;36.25;25.17;;;15.50;99.90;;;;;;5073796;28;20093;-77
2022/07/30 05:40:37;;;;;;;32.78;24.02;;;15.70;99.90;;;;;;5073680;28;20116;-77
2022/07/30 05:43:03;;;;;;;39.22;25.05;;;15.80;99.90;;;;;;5073959;28;20181;-77
2022/07/30 05:45:29;;;;;;;33.30;23.35;;;15.90;99.90;;;;;;5073331;28;20051;-77
2022/07/30 05:47:54;;;;;;;35.35;24.33;;;16.00;99.90;;;;;;5074804;28;20074;-77
2022/07/30 05:50:20;;;;;;;42.47;26.83;;;16.20;99.90;;;;;;5074908;28;20040;-77
2022/07/30 05:52:46;;;;;;;36.88;24.63;;;16.30;99.90;;;;;;5073306;28;20055;-77
2022/07/30 05:55:11;;;;;;;35.47;24.25;;;16.40;99.90;;;;;;5074505;28;20041;-78
2022/07/30 05:57:37;;;;;;;32.80;21.90;;;16.60;99.90;;;;;;5074462;28;20105;-77
2022/07/30 06:00:07;;;;;;;34.67;21.75;;;16.70;99.90;;;;;;5073141;28;20051;-77
2022/07/30 06:02:33;;;;;;;29.83;20.73;;;16.90;99.90;;;;;;5073138;28;20526;-77
2022/07/30 06:04:58;;;;;;;31.00;21.52;;;17.00;99.90;;;;;;5073447;28;20048;-77
2022/07/30 06:07:24;;;;;;;29.05;19.58;;;17.10;99.90;;;;;;5074316;28;20052;-76
2022/07/30 06:09:50;;;;;;;29.55;20.30;;;17.30;99.90;;;;;;5073109;28;20101;-76
2022/07/30 06:12:15;;;;;;;30.08;19.98;;;17.40;99.90;;;;;;5072932;28;20052;-77
2022/07/30 06:14:41;;;;;;;28.83;18.25;;;17.50;99.90;;;;;;5072790;28;20041;-77
2022/07/30 06:17:07;;;;;;;21.65;16.08;;;17.70;99.90;;;;;;5074084;28;20052;-77
2022/07/30 06:19:33;;;;;;;22.58;14.30;;;17.90;99.90;;;;;;5072940;28;20093;-76
2022/07/30 06:21:58;;;;;;;18.38;14.00;;;18.10;99.90;;;;;;5074278;28;20624;-77
2022/07/30 06:24:24;;;;;;;22.02;13.15;;;18.30;99.90;;;;;;5072479;28;20056;-77
2022/07/30 06:26:49;;;;;;;19.92;11.82;;;18.40;99.90;;;;;;5072931;28;20048;-77
2022/07/30 06:29:15;;;;;;;21.88;11.52;;;18.60;99.90;;;;;;5073937;28;20047;-77
2022/07/30 06:31:42;;;;;;;20.17;11.18;;;18.70;99.90;;;;;;5072527;28;20087;-77
2022/07/30 06:34:07;;;;;;;19.83;10.55;;;18.90;99.90;;;;;;5073835;28;20079;-77
2022/07/30 06:36:33;;;;;;;17.75;9.95;;;19.10;99.90;;;;;;5072542;28;20055;-77
2022/07/30 06:38:59;;;;;;;15.18;8.43;;;19.30;99.90;;;;;;5072477;28;20055;-77
2022/07/30 06:41:24;;;;;;;18.73;8.73;;;19.40;99.90;;;;;;5073931;28;20154;-77
2022/07/30 06:43:50;;;;;;;13.10;8.10;;;19.60;99.90;;;;;;5072624;28;20048;-77
2022/07/30 06:46:16;;;;;;;17.25;7.95;;;19.80;99.90;;;;;;5073875;28;20036;-77
2022/07/30 06:48:42;;;;;;;12.77;6.57;;;20.00;99.90;;;;;;5072732;28;20058;-77
2022/07/30 06:51:07;;;;;;;15.25;6.30;;;20.10;99.90;;;;;;5073870;28;20475;-77
2022/07/30 06:53:33;;;;;;;13.23;6.43;;;20.30;99.90;;;;;;5074286;28;20472;-76
2022/07/30 06:55:59;;;;;;;12.18;6.63;;;20.40;99.90;;;;;;5082570;28;20071;-73
2022/07/30 06:58:25;;;;;;;18.48;5.53;;;20.60;99.90;;;;;;5074201;28;20048;-73
2022/07/30 07:00:50;;;;;;;12.88;5.47;;;20.70;99.90;;;;;;5081135;28;20044;-73
2022/07/30 07:03:16;;;;;;;13.00;5.82;;;20.90;99.90;;;;;;5073575;28;20120;-73
2022/07/30 07:05:42;;;;;;;12.35;5.63;;;21.00;99.90;;;;;;5073502;28;20123;-73
2022/07/30 07:08:07;;;;;;;13.95;7.15;;;21.00;99.90;;;;;;5071951;28;20044;-73
2022/07/30 07:10:33;;;;;;;13.25;6.07;;;21.10;99.90;;;;;;5072188;28;20433;-73
2022/07/30 07:12:59;;;;;;;12.13;5.55;;;21.20;99.90;;;;;;5073182;28;20170;-73
2022/07/30 07:15:25;;;;;;;11.68;4.80;;;21.30;99.90;;;;;;5088675;28;20048;-73
2022/07/30 07:17:51;;;;;;;12.30;5.65;;;21.30;99.90;;;;;;5071954;28;20072;-73
2022/07/30 07:20:17;;;;;;;11.55;5.72;;;21.30;99.90;;;;;;5073144;28;20079;-73
2022/07/30 07:22:42;;;;;;;11.43;5.30;;;21.20;99.90;;;;;;5073230;28;20392;-73
2022/07/30 07:25:08;;;;;;;12.45;5.40;;;21.30;99.90;;;;;;5071665;28;20101;-73
2022/07/30 07:27:35;;;;;;;12.30;4.93;;;21.40;99.90;;;;;;5072929;28;20508;-73
2022/07/30 07:30:01;;;;;;;11.07;5.60;;;21.40;99.90;;;;;;5072003;28;20049;-73
2022/07/30 07:32:26;;;;;;;12.68;6.25;;;21.30;99.90;;;;;;5072065;28;20074;-73
2022/07/30 07:34:52;;;;;;;15.63;5.93;;;21.20;99.90;;;;;;5071487;28;20102;-74
2022/07/30 07:37:17;;;;;;;17.55;5.95;;;21.20;99.90;;;;;;5073172;28;20040;-74
2022/07/30 07:39:43;;;;;;;11.43;5.30;;;21.10;99.90;;;;;;5072024;28;20040;-73
2022/07/30 07:42:09;;;;;;;11.93;5.30;;;21.10;99.90;;;;;;5073168;28;20052;-74
2022/07/30 07:44:34;;;;;;;12.18;4.85;;;21.30;99.90;;;;;;5075985;28;20056;-74
2022/07/30 07:47:00;;;;;;;10.82;5.75;;;21.40;99.90;;;;;;5076959;28;20082;-73
2022/07/30 07:49:26;;;;;;;10.55;5.68;;;21.70;99.90;;;;;;5075616;28;20049;-73
2022/07/30 07:51:51;;;;;;;11.68;5.90;;;21.80;99.90;;;;;;5076813;28;20063;-73
2022/07/30 07:54:17;;;;;;;10.88;5.88;;;21.70;99.90;;;;;;5076982;28;20097;-74
2022/07/30 07:56:42;;;;;;;9.05;5.57;;;21.70;99.90;;;;;;5075334;28;20049;-74
2022/07/30 07:59:08;;;;;;;7.32;5.22;;;21.80;99.90;;;;;;5076411;28;20048;-74
2022/07/30 08:01:34;;;;;;;15.80;6.15;;;21.80;99.90;;;;;;5075534;28;20484;-74
2022/07/30 08:03:59;;;;;;;8.30;5.40;;;21.90;99.90;;;;;;5075547;28;20095;-74
2022/07/30 08:06:25;;;;;;;9.32;5.43;;;22.00;99.90;;;;;;5076534;28;20041;-74
2022/07/30 08:08:51;;;;;;;9.07;5.85;;;22.00;99.90;;;;;;5081755;28;20505;-74
2022/07/30 08:11:16;;;;;;;14.80;5.63;;;21.90;99.90;;;;;;5082106;28;20101;-74
2022/07/30 08:13:42;;;;;;;10.52;5.75;;;21.90;99.90;;;;;;5074976;28;20044;-74
2022/07/30 08:16:09;;;;;;;11.75;6.20;;;22.10;99.90;;;;;;5076530;28;20048;-73
2022/07/30 08:18:38;;;;;;;12.10;6.07;;;22.20;99.90;;;;;;5076566;28;20045;-73
2022/07/30 08:21:04;;;;;;;10.43;5.28;;;22.30;99.90;;;;;;5076204;28;20101;-73
2022/07/30 08:23:30;;;;;;;10.45;5.20;;;22.40;99.90;;;;;;5076049;28;20110;-73
2022/07/30 08:25:57;;;;;;;13.00;5.65;;;22.50;99.90;;;;;;5076035;28;20052;-73
2022/07/30 08:28:23;;;;;;;8.35;5.40;;;22.60;99.90;;;;;;5076322;28;20059;-73
2022/07/30 08:30:49;;;;;;;10.77;5.22;;;22.70;99.90;;;;;;5074813;28;20192;-74
2022/07/30 08:33:15;;;;;;;10.40;5.05;;;22.70;99.90;;;;;;5074619;28;20161;-73
2022/07/30 08:35:41;;;;;;;12.23;4.65;;;22.80;99.90;;;;;;5074511;28;20040;-74
2022/07/30 08:38:06;;;;;;;11.23;5.25;;;23.00;99.90;;;;;;5077356;28;20041;-74
2022/07/30 08:40:33;;;;;;;10.73;5.20;;;23.10;99.90;;;;;;5083396;28;20463;-73
2022/07/30 08:43:05;;;;;;;13.95;5.18;;;23.30;99.90;;;;;;5075797;28;20048;-74
2022/07/30 08:45:31;;;;;;;11.88;5.03;;;23.30;99.90;;;;;;5074585;28;20166;-74
2022/07/30 08:48:00;;;;;;;9.93;5.18;;;23.30;99.90;;;;;;5076190;28;20411;-74
2022/07/30 08:50:27;;;;;;;9.13;5.00;;;23.30;99.90;;;;;;5084982;28;20047;-73
2022/07/30 08:52:55;;;;;;;10.35;4.55;;;23.30;99.90;;;;;;5074355;28;20511;-73
2022/07/30 08:55:22;;;;;;;11.00;5.68;;;23.30;99.90;;;;;;5073845;28;20407;-73
2022/07/30 08:57:48;;;;;;;9.73;4.93;;;23.40;99.90;;;;;;5074240;28;20048;-73
2022/07/30 09:00:15;;;;;;;10.02;4.80;;;23.40;99.90;;;;;;5074559;28;20487;-73
2022/07/30 09:02:41;;;;;;;11.23;4.97;;;23.40;99.90;;;;;;5075355;28;20116;-73
2022/07/30 09:05:08;;;;;;;11.73;5.13;;;23.30;99.90;;;;;;5075346;28;20066;-73
2022/07/30 09:07:35;;;;;;;10.27;4.50;;;23.40;99.90;;;;;;5075479;28;20040;-73
2022/07/30 09:10:01;;;;;;;7.93;4.75;;;23.50;99.90;;;;;;5085160;28;20395;-73
2022/07/30 09:12:43;;;;;;;21.45;6.07;;;23.50;99.90;;;;;;5075553;28;20040;-73
2022/07/30 09:15:14;;;;;;;11.00;5.43;;;23.60;99.90;;;;;;5073974;28;20404;-74
2022/07/30 09:18:13;;;;;;;12.38;5.28;;;23.60;99.90;;;;;;5073877;28;20044;-74
2022/07/30 09:20:38;;;;;;;18.45;5.30;;;23.70;99.90;;;;;;5055277;28;20048;-75
2022/07/30 09:23:05;;;;;;;16.05;5.28;;;23.70;99.90;;;;;;5095379;28;20051;-75
2022/07/30 09:25:40;;;;;;;10.40;5.22;;;23.70;99.90;;;;;;5095024;28;20055;-75
2022/07/30 09:28:08;;;;;;;19.20;6.68;;;23.80;99.90;;;;;;5093925;28;20055;-75
2022/07/30 09:30:53;;;;;;;12.23;5.75;;;23.90;99.90;;;;;;5093820;28;20055;-75
2022/07/30 09:33:35;;;;;;;10.48;5.07;;;23.90;99.90;;;;;;5094109;28;20054;-75
2022/07/30 09:36:02;;;;;;;10.57;5.30;;;23.80;99.90;;;;;;5093521;28;20049;-75
2022/07/30 09:38:28;;;;;;;11.68;5.15;;;23.70;99.90;;;;;;5090034;28;20056;-74
2022/07/30 09:40:56;;;;;;;7.32;5.20;;;23.80;99.90;;;;;;5082299;28;20051;-75
2022/07/30 09:43:22;;;;;;;12.48;5.07;;;23.80;99.90;;;;;;5094400;28;20042;-74
2022/07/30 09:45:54;;;;;;;15.05;5.78;;;23.90;99.90;;;;;;5092910;28;20040;-74
2022/07/30 09:48:25;;;;;;;13.20;4.93;;;24.00;99.90;;;;;;5076096;28;20052;-75
2022/07/30 09:50:51;;;;;;;8.88;4.75;;;23.80;99.90;;;;;;5081985;28;20044;-75
2022/07/30 09:53:18;;;;;;;9.10;5.30;;;23.70;99.90;;;;;;5073496;28;20131;-75
2022/07/30 09:55:44;;;;;;;18.75;5.63;;;24.00;99.90;;;;;;5082709;28;20055;-75
2022/07/30 09:58:11;;;;;;;12.48;5.32;;;24.20;99.90;;;;;;5037696;28;20118;-76
2022/07/30 10:00:37;;;;;;;8.77;4.80;;;24.40;99.90;;;;;;5063446;28;20421;-76
2022/07/30 10:03:16;;;;;;;11.75;4.57;;;24.50;99.90;;;;;;5105974;28;20542;-76
2022/07/30 10:05:53;;;;;;;8.75;4.78;;;24.50;99.90;;;;;;5091981;28;20126;-75
2022/07/30 10:08:20;;;;;;;12.95;5.30;;;24.40;99.90;;;;;;5093153;28;20048;-75
2022/07/30 10:10:48;;;;;;;11.43;4.35;;;24.60;99.90;;;;;;5094282;28;20441;-75
2022/07/30 10:13:15;;;;;;;8.20;4.10;;;24.80;99.90;;;;;;5093211;28;20052;-75
2022/07/30 10:15:43;;;;;;;8.70;4.25;;;24.90;99.90;;;;;;5093319;28;20056;-75
2022/07/30 10:18:09;;;;;;;9.50;4.82;;;24.80;99.90;;;;;;5093242;28;20047;-75
2022/07/30 10:20:37;;;;;;;5.65;4.03;;;24.70;99.90;;;;;;5094096;28;20132;-75
2022/07/30 10:23:06;;;;;;;5.95;4.30;;;24.80;99.90;;;;;;5092792;28;20052;-75
2022/07/30 10:25:32;;;;;;;7.43;4.15;;;24.60;99.90;;;;;;5094181;28;20095;-75
2022/07/30 10:27:58;;;;;;;7.43;4.20;;;24.60;99.90;;;;;;5092644;28;20044;-75
2022/07/30 10:30:26;;;;;;;7.65;3.90;;;24.80;99.90;;;;;;5093879;28;20048;-75
2022/07/30 10:32:52;;;;;;;8.27;3.88;;;24.80;99.90;;;;;;5092479;28;20123;-75
2022/07/30 10:35:18;;;;;;;7.72;4.22;;;24.70;99.90;;;;;;5092840;28;20126;-75
2022/07/30 10:37:48;;;;;;;7.45;4.32;;;24.80;99.90;;;;;;5091737;28;20093;-75
2022/07/30 10:40:16;;;;;;;9.98;4.05;;;24.70;99.90;;;;;;5083416;28;20046;-74
2022/07/30 10:43:01;;;;;;;6.22;4.13;;;24.40;99.90;;;;;;5073614;28;20040;-74
2022/07/30 10:45:56;;;;;;;11.60;4.15;;;24.40;99.90;;;;;;5073577;28;20052;-75
2022/07/30 10:48:23;;;;;;;6.70;3.45;;;24.30;99.90;;;;;;5072918;28;20094;-74
2022/07/30 10:50:54;;;;;;;8.50;3.92;;;24.50;99.90;;;;;;5071345;28;20472;-76
2022/07/30 10:53:47;;;;;;;7.22;3.20;;;24.60;99.90;;;;;;5070413;28;20056;-75
2022/07/30 10:56:17;;;;;;;7.13;3.70;;;24.80;99.90;;;;;;5072578;28;20086;-77
2022/07/30 10:59:03;;;;;;;6.78;3.50;;;24.80;99.90;;;;;;5073379;28;20052;-75
2022/07/30 11:01:58;;;;;;;6.97;3.42;;;25.00;99.90;;;;;;5071649;28;20044;-76
2022/07/30 11:04:28;;;;;;;5.82;3.50;;;24.70;99.90;;;;;;5070541;28;20063;-76
2022/07/30 11:07:26;;;;;;;7.25;4.30;;;24.70;99.90;;;;;;5093578;28;20044;-77
2022/07/30 11:09:53;;;;;;;8.05;3.85;;;24.60;99.90;;;;;;5093723;28;20052;-76
2022/07/30 11:12:41;;;;;;;7.82;3.70;;;24.60;99.90;;;;;;5091830;28;20541;-75
2022/07/30 11:15:08;;;;;;;5.18;3.80;;;24.60;99.90;;;;;;5093620;28;20055;-77
2022/07/30 11:18:00;;;;;;;8.85;3.88;;;24.70;99.90;;;;;;5091921;28;20040;-75
2022/07/30 11:20:28;;;;;;;5.05;3.10;;;24.80;99.90;;;;;;5092077;28;20510;-75
2022/07/30 11:23:06;;;;;;;7.75;3.20;;;25.10;99.90;;;;;;5093599;28;20123;-76
2022/07/30 11:25:32;;;;;;;5.82;3.50;;;25.00;99.90;;;;;;5093571;28;20040;-78
2022/07/30 11:27:59;;;;;;;7.88;3.63;;;24.80;99.90;;;;;;5091847;28;20429;-78
2022/07/30 11:30:28;;;;;;;6.68;3.75;;;24.70;99.90;;;;;;5091830;28;20047;-76
2022/07/30 11:33:14;;;;;;;7.65;4.03;;;24.50;99.90;;;;;;5092138;28;20126;-75
2022/07/30 11:35:40;;;;;;;9.50;3.75;;;24.60;99.90;;;;;;5098381;28;20181;-76
2022/07/30 11:38:14;;;;;;;8.18;3.60;;;24.30;99.90;;;;;;5092298;28;20048;-75
2022/07/30 11:40:49;;;;;;;10.80;3.80;;;24.30;99.90;;;;;;5093513;28;20035;-75
2022/07/30 11:43:28;;;;;;;9.02;3.20;;;24.50;99.90;;;;;;5091863;28;20043;-75
2022/07/30 11:46:16;;;;;;;5.20;3.13;;;24.70;99.90;;;;;;5092440;28;20479;-76
2022/07/30 11:48:58;;;;;;;8.00;4.47;;;24.50;99.90;;;;;;5092035;28;20044;-75
2022/07/30 11:51:24;;;;;;;7.10;3.17;;;24.60;99.90;;;;;;5091884;28;20082;-77
2022/07/30 11:54:04;;;;;;;5.78;3.25;;;24.60;99.90;;;;;;5092998;28;20048;-75
2022/07/30 11:56:30;;;;;;;7.07;3.50;;;24.60;99.90;;;;;;5087983;28;20051;-75
2022/07/30 11:59:01;;;;;;;14.02;4.20;;;24.40;99.90;;;;;;5080278;28;20056;-75
2022/07/30 12:01:27;;;;;;;8.23;3.17;;;24.30;99.90;;;;;;5072913;28;20086;-76
2022/07/30 12:03:54;;;;;;;12.23;3.55;;;24.40;99.90;;;;;;5072916;28;20090;-76
2022/07/30 12:06:20;;;;;;;5.55;2.97;;;24.30;99.90;;;;;;5071303;28;20072;-76
2022/07/30 12:08:47;;;;;;;7.38;3.05;;;24.30;99.90;;;;;;5072828;28;20059;-76
2022/07/30 12:11:14;;;;;;;8.15;3.20;;;24.20;99.90;;;;;;5088429;28;20084;-76
2022/07/30 12:13:44;;;;;;;8.55;3.53;;;24.20;99.90;;;;;;5100494;28;20147;-76
2022/07/30 12:16:11;;;;;;;6.78;2.92;;;24.30;99.90;;;;;;5091811;28;20059;-76
2022/07/30 12:18:37;;;;;;;5.35;3.13;;;24.20;99.90;;;;;;5092854;28;20044;-76
2022/07/30 12:21:07;;;;;;;6.13;3.10;;;24.40;99.90;;;;;;5091469;28;20044;-76
2022/07/30 12:23:33;;;;;;;7.22;3.42;;;24.60;99.90;;;;;;5092397;28;20407;-76
2022/07/30 12:25:59;;;;;;;12.25;3.90;;;24.70;99.90;;;;;;5092642;28;20052;-77
2022/07/30 12:28:30;;;;;;;5.28;4.00;;;24.90;99.90;;;;;;5092994;28;20048;-76
2022/07/30 12:30:57;;;;;;;9.50;3.20;;;25.00;99.90;;;;;;5095042;28;20542;-76
2022/07/30 12:33:23;;;;;;;4.05;3.15;;;25.00;99.90;;;;;;5096105;28;20097;-76
2022/07/30 12:35:50;;;;;;;8.05;3.28;;;25.00;99.90;;;;;;5096431;28;20085;-76
2022/07/30 12:38:17;;;;;;;6.10;2.83;;;25.10;99.90;;;;;;5096080;28;20052;-76
2022/07/30 12:40:50;;;;;;;8.65;3.25;;;25.30;99.90;;;;;;5096335;28;20036;-76
2022/07/30 12:43:16;;;;;;;7.63;2.88;;;25.10;99.90;;;;;;5096254;28;20055;-76